^^
Datos históricos de la estación: Murcia-Puente Tocinos
Diario Informe para Noviembre 14, 2019 Unidades:  Ingés    Métrico   Ambas
Diario Semanal Mensual Anual
  Máxima: Mínima: Promedio:
Temperatura: 64.2 °F 50.7 °F 56.3 °F
Punto de rocio: 51.3 °F 35.4 °F 43.5 °F
Humedad: 82% 41% 64%
Velocidad viento: 19.2mph 0mph 5.7mph
Racha viento: 38.4mph - -
Viento- - SSO
Presión: 29.8 in 29.5 in -
Precipitación: 0.1 in    
 
 
Tabla de datos para Noviembre 14, 2019
Hora Temperatura Punto de rocio Presión Viento Velocidad viento Racha viento Humedad Intensidad lluvia(por hora) Nubes
00:04 59.9 °F 47.7 °F 29.8 in NO 1.2 mph 5 mph 64% 0 in
00:09 59.5 °F 47.7 °F 29.8 in NNO 1.8 mph 4.7 mph 64.7% 0 in
00:14 59.5 °F 48.4 °F 29.8 in NE 1.8 mph 6 mph 66.5% 0 in
00:19 59.5 °F 49.3 °F 29.8 in NE 1.8 mph 6.2 mph 68.9% 0 in
00:24 59.4 °F 50 °F 29.8 in NNE 2.9 mph 6 mph 71% 0 in
00:29 59.4 °F 50.5 °F 29.8 in NNO 3.6 mph 5.2 mph 72.9% 0 in
00:34 59.2 °F 50.7 °F 29.8 in NNO 2.9 mph 5.2 mph 73.7% 0 in
00:39 58.8 °F 50.5 °F 29.8 in NNO 2.4 mph 5 mph 74% 0 in
00:44 58.5 °F 50.2 °F 29.8 in NNO 2.4 mph 5 mph 74% 0 in
00:49 58.1 °F 49.8 °F 29.8 in NNE 2.4 mph 5 mph 74% 0 in
00:54 57.7 °F 49.8 °F 29.8 in ONO 2.4 mph 5 mph 74.4% 0 in
00:59 57.7 °F 50 °F 29.8 in Oeste 2.4 mph 3 mph 75.2% 0 in
01:04 57.7 °F 50.5 °F 29.8 in Oeste 0.8 mph 2 mph 76.7% 0 in
01:09 57.7 °F 50.5 °F 29.8 in Calm   2.4 mph 76.7% 0 in
01:14 57.6 °F 50.4 °F 29.8 in Calm   2.3 mph 76.8% 0 in
01:19 57.6 °F 50.7 °F 29.8 in Calm   3.1 mph 77.8% 0 in
01:24 57.6 °F 50.7 °F 29.8 in Calm   3.5 mph 78% 0 in
01:29 57.6 °F 50.9 °F 29.8 in Calm   3.5 mph 78.3% 0 in
01:34 57.6 °F 51.1 °F 29.8 in ONO 1.1 mph 4.7 mph 79% 0 in
01:39 57.4 °F 51.3 °F 29.8 in Oeste 1.8 mph 5.9 mph 79.7% 0 in
01:44 57.2 °F 51.1 °F 29.8 in Oeste 2.9 mph 6 mph 80.3% 0 in
01:49 57 °F 51.3 °F 29.8 in SSO 3.6 mph 5 mph 81% 0 in
01:54 57 °F 51.3 °F 29.8 in ESE 2.5 mph 5 mph 81% 0 in
01:59 57 °F 51.3 °F 29.8 in OSO 2 mph 4 mph 81.1% 0 in
02:04 57 °F 51.1 °F 29.8 in SE 1.9 mph 5.2 mph 80.8% 0 in
02:09 56.8 °F 50.5 °F 29.8 in SSE 1.8 mph 5.8 mph 79.9% 0 in
02:14 56.7 °F 50 °F 29.8 in Sur 2.6 mph 6 mph 79% 0 in
02:19 56.5 °F 49.8 °F 29.8 in SSO 3.1 mph 5 mph 78.6% 0 in
02:24 56.5 °F 49.6 °F 29.8 in SSO 2.7 mph 4.6 mph 78% 0 in
02:29 56.7 °F 49.6 °F 29.8 in Oeste 2.4 mph 5.9 mph 77.3% 0 in
02:34 56.7 °F 49.5 °F 29.8 in ONO 3.2 mph 6.9 mph 77% 0 in
02:39 56.7 °F 49.5 °F 29.8 in ONO 3.6 mph 7 mph 77% 0 in
02:44 56.7 °F 49.5 °F 29.8 in SSO 3.1 mph 7 mph 77% 0 in
02:49 56.7 °F 49.6 °F 29.8 in SE 2.9 mph 5 mph 77.3% 0 in
02:54 56.7 °F 49.5 °F 29.8 in Sur 2.9 mph 5 mph 77% 0 in
02:59 56.7 °F 49.5 °F 29.8 in SSO 2.9 mph 5 mph 77% 0 in
03:04 56.7 °F 49.5 °F 29.8 in SSO 2.2 mph 3.6 mph 76.7% 0 in
03:09 56.7 °F 48.9 °F 29.8 in SSE 1.8 mph 5.9 mph 75.6% 0 in
03:14 56.5 °F 48.4 °F 29.8 in SSE 2.6 mph 6 mph 74.2% 0 in
03:19 56.3 °F 48.2 °F 29.8 in SSE 3.1 mph 5.8 mph 74% 0 in
03:24 56.1 °F 48 °F 29.8 in SE 3.4 mph 7.4 mph 74% 0 in
03:29 55.9 °F 47.8 °F 29.7 in SSE 3.6 mph 7 mph 74.1% 0 in
03:34 55.8 °F 48 °F 29.7 in SSE 3.6 mph 6 mph 75% 0 in
03:39 55.6 °F 47.8 °F 29.7 in SSO 3.6 mph 6.2 mph 75.3% 0 in
03:44 55.6 °F 48 °F 29.7 in NNO 3.2 mph 6 mph 76% 0 in
03:49 55.2 °F 48 °F 29.7 in ONO 2.9 mph 6 mph 76.4% 0 in
03:54 55 °F 48.2 °F 29.7 in ONO 2.5 mph 5 mph 77.8% 0 in
03:59 54.9 °F 48.6 °F 29.7 in ONO 2.4 mph 5 mph 79% 0 in
04:04 54.9 °F 48.7 °F 29.7 in ONO 2 mph 3 mph 79.6% 0 in
04:09 54.9 °F 48.7 °F 29.7 in ONO 1.8 mph 4.3 mph 80% 0 in
04:14 54.9 °F 48.7 °F 29.7 in ONO 1.8 mph 5 mph 80% 0 in
04:19 54.9 °F 48.7 °F 29.7 in ONO 1.8 mph 5 mph 80% 0 in
04:24 54.9 °F 48.7 °F 29.7 in Oeste 1.6 mph 5.2 mph 80% 0 in
04:29 54.9 °F 48.7 °F 29.7 in ESE 1.4 mph 5 mph 79.6% 0 in
04:34 54.9 °F 48.6 °F 29.7 in ESE 1.8 mph 5 mph 79% 0 in
04:39 54.9 °F 48.2 °F 29.7 in Este 2 mph 5.2 mph 78.6% 0 in
04:44 54.5 °F 47.8 °F 29.7 in Este 2.2 mph 5 mph 78.3% 0 in
04:49 54.1 °F 47.8 °F 29.7 in ESE 2.4 mph 4.7 mph 79% 0 in
04:54 54 °F 47.7 °F 29.7 in SSE 2.4 mph 5 mph 79% 0 in
04:59 54 °F 47.7 °F 29.7 in SSE 2.4 mph 5 mph 79.2% 0 in
05:04 54 °F 47.8 °F 29.7 in SSE 2.7 mph 5 mph 80% 0 in
05:09 54 °F 47.7 °F 29.7 in SSE 2.9 mph 5 mph 79.4% 0 in
05:14 54 °F 47.7 °F 29.7 in SE 1.9 mph 5.2 mph 79.1% 0 in
05:19 53.8 °F 47.3 °F 29.7 in NO 1.4 mph 5 mph 79% 0 in
05:24 53.2 °F 47.1 °F 29.7 in NO 2.1 mph 5 mph 79.3% 0 in
05:29 53.1 °F 47.3 °F 29.7 in ONO 2.4 mph 5 mph 80.4% 0 in
05:34 53.1 °F 47.5 °F 29.7 in ONO 2.2 mph 5 mph 81.5% 0 in
05:39 53.1 °F 47.7 °F 29.7 in ONO 2 mph 3 mph 82% 0 in
05:44 53.1 °F 47.7 °F 29.7 in ONO 1.6 mph 7.4 mph 82% 0 in
05:49 52.9 °F 47.3 °F 29.7 in ESE 1.4 mph 7 mph 81.1% 0 in
05:54 52.7 °F 46.9 °F 29.7 in SE 2.8 mph 6 mph 81% 0 in
05:59 52.5 °F 46.9 °F 29.7 in SE 3.6 mph 5 mph 81.4% 0 in
06:04 52.5 °F 47.1 °F 29.7 in SO 2.4 mph 2.3 mph 82% 0 in
06:09 52.5 °F 47.3 °F 29.7 in SO 1.8 mph 2 mph 82% 0 in
06:14 52.7 °F 47.5 °F 29.6 in SO 0.7 mph   82% 0 in
06:19 53.1 °F 47.5 °F 29.6 in Calm     81.7% 0 in
06:24 53.2 °F 47.5 °F 29.6 in Calm   3.6 mph 81% 0 in
06:29 53.2 °F 47.3 °F 29.6 in Calm   4 mph 80.1% 0 in
06:34 53.1 °F 47.3 °F 29.6 in Oeste 1.2 mph 3.6 mph 80.7% 0 in
06:39 53.1 °F 47.5 °F 29.6 in Oeste 1.8 mph 4 mph 81% 0 in
06:44 53.1 °F 47.5 °F 29.6 in Oeste 1.6 mph 3 mph 81% 0 in
06:49 53.1 °F 47.5 °F 29.6 in SSE 1.4 mph 4.6 mph 81% 0 in
06:54 53.2 °F 47.3 °F 29.6 in ESE 1.8 mph 5.8 mph 80.4% 0 in
06:59 53.1 °F 47.1 °F 29.6 in ESE 2 mph 6 mph 80% 0 in
07:04 52.7 °F 46.8 °F 29.6 in ESE 2.2 mph 5.9 mph 80% 0 in
07:09 52.7 °F 46.9 °F 29.6 in ESE 2.4 mph 6 mph 80.8% 0 in
07:14 52.9 °F 46.9 °F 29.6 in Este 3.2 mph 5.2 mph 80.5% 0 in
07:19 53.1 °F 47.5 °F 29.6 in ESE 3.6 mph 5 mph 80.9% 0 in
07:24 53.6 °F 47.3 °F 29.6 in ESE 3.2 mph 5 mph 79.6% 0 in
07:29 54 °F 47.1 °F 29.6 in SE 2.9 mph 5 mph 77.2% 0 in
07:34 54.7 °F 46.8 °F 29.6 in SSO 2.3 mph 5.2 mph 74.5% 0 in
07:39 55 °F 46.8 °F 29.6 in SSE 2 mph 5 mph 73.4% 0 in
07:44 55.4 °F 46.9 °F 29.6 in ESE 2.2 mph 5 mph 73% 0 in
07:49 55.4 °F 46.9 °F 29.6 in ESE 2.4 mph 5 mph 73% 0 in
07:54 55.2 °F 46.6 °F 29.6 in Este 2.4 mph 4 mph 72.6% 0 in
07:59 55.2 °F 46.4 °F 29.6 in North 2.4 mph 4.6 mph 72.1% 0 in
08:04 55.2 °F 45.9 °F 29.6 in NNO 2 mph 5 mph 70.5% 0 in
08:09 55.8 °F 45.7 °F 29.6 in North 1.8 mph 4.7 mph 69.3% 0 in
08:14 55.6 °F 45.7 °F 29.6 in NNE 2.6 mph 5.2 mph 69.1% 0 in
08:19 55.6 °F 45.7 °F 29.6 in North 3.1 mph 5.2 mph 69.1% 0 in
08:24 55.8 °F 45.7 °F 29.6 in North 2.4 mph 5 mph 68.8% 0 in
08:29 55.8 °F 45.7 °F 29.6 in Oeste 2 mph 4.7 mph 69% 0 in
08:34 55.4 °F 45.7 °F 29.6 in Oeste 2.2 mph 5.2 mph 69.4% 0 in
08:39 55.2 °F 45.3 °F 29.6 in Oeste 2.4 mph 5 mph 69.4% 0 in
08:44 55 °F 45.5 °F 29.6 in NO 2.4 mph 5 mph 70% 0 in
08:49 55 °F 45.1 °F 29.6 in Oeste 2.4 mph 15.2 mph 69.1% 0 in
08:54 56.7 °F 43.2 °F 29.6 in SO 2.8 mph 15 mph 60.9% 0 in
08:59 59.7 °F 42.1 °F 29.6 in SO 3.1 mph 17.3 mph 52.3% 0 in
09:04 61.3 °F 41.5 °F 29.6 in SO 7.1 mph 17.5 mph 48% 0 in
09:09 62.2 °F 41.4 °F 29.6 in SO 9.2 mph 18.5 mph 46.2% 0 in
09:14 62.8 °F 41 °F 29.6 in SSO 10.4 mph 19 mph 45% 0 in
09:19 63 °F 41.4 °F 29.6 in SSO 11.2 mph 19.6 mph 45% 0 in
09:24 63 °F 41.2 °F 29.6 in SSO 11.3 mph 20.7 mph 45% 0 in
09:29 63 °F 41.4 °F 29.6 in SSO 11.4 mph 21 mph 45% 0 in
09:34 63 °F 41.4 °F 29.6 in SSO 11.7 mph 21.9 mph 45% 0 in
09:39 63 °F 41.7 °F 29.6 in SSO 11.8 mph 22 mph 45.9% 0 in
09:44 62.8 °F 41.7 °F 29.6 in SSO 11.4 mph 19 mph 46% 0 in
09:49 62.8 °F 41.7 °F 29.6 in SSO 11.2 mph 19 mph 46% 0 in
09:54 62.8 °F 41.7 °F 29.6 in SSO 10.4 mph 18.4 mph 46% 0 in
09:59 62.8 °F 41.7 °F 29.6 in SSO 10 mph 18.5 mph 46% 0 in
10:04 63 °F 41.5 °F 29.6 in SSO 10.4 mph 19.7 mph 45.4% 0 in
10:09 63.1 °F 41.4 °F 29.6 in SSO 10.7 mph 20 mph 45% 0 in
10:14 63.1 °F 41.4 °F 29.6 in Sur 11 mph 17.3 mph 44.8% 0 in
10:19 63.3 °F 41.4 °F 29.6 in SSO 11.2 mph 17.3 mph 44.7% 0 in
10:24 63.3 °F 41.5 °F 29.6 in SSO 9.6 mph 14 mph 45% 0 in
10:29 63.1 °F 41.4 °F 29.6 in Sur 8.7 mph 13 mph 44.8% 0 in
10:34 63.3 °F 41.5 °F 29.6 in SSO 8 mph 15 mph 44.9% 0 in
10:39 63.3 °F 41.5 °F 29.6 in Sur 7.6 mph 15 mph 45% 0 in
10:44 63.1 °F 41.4 °F 29.6 in Sur 7.1 mph 11.8 mph 45% 0 in
10:49 63.1 °F 41.4 °F 29.6 in SSO 6.9 mph 12 mph 45% 0 in
10:54 63.1 °F 41 °F 29.6 in SSO 6.9 mph 12.5 mph 44.3% 0 in
10:59 63.3 °F 41 °F 29.6 in SSO 6.9 mph 15.2 mph 43.9% 0 in
11:04 63.3 °F 40.5 °F 29.6 in SSO 8.1 mph 15 mph 43.1% 0 in
11:09 63.3 °F 40.5 °F 29.6 in SSO 8.7 mph 14 mph 43.1% 0 in
11:14 63.3 °F 40.5 °F 29.6 in SSO 7.9 mph 15 mph 43% 0 in
11:19 63.5 °F 40.5 °F 29.6 in SSO 7.4 mph 15 mph 42.9% 0 in
11:24 63.3 °F 40.5 °F 29.6 in SSO 7.5 mph 13 mph 43% 0 in
11:29 63.3 °F 40.5 °F 29.6 in SSO 7.6 mph 12.7 mph 43.1% 0 in
11:34 63.3 °F 40.6 °F 29.6 in SSO 8 mph 17.5 mph 43.5% 0 in
11:39 63.3 °F 40.5 °F 29.6 in SSO 8.1 mph 17.3 mph 43% 0 in
11:44 63.3 °F 40.5 °F 29.6 in SSO 9.4 mph 16 mph 43% 0 in
11:49 63.3 °F 40.3 °F 29.6 in SSO 10.2 mph 15 mph 42.9% 0 in
11:54 63.3 °F 39.9 °F 29.6 in SSO 9.6 mph 17.3 mph 42.2% 0 in
11:59 63.3 °F 39.7 °F 29.6 in SSO 9.2 mph 17.3 mph 41.8% 0 in
12:04 63.3 °F 39.4 °F 29.6 in SSO 9.9 mph 17.3 mph 41.2% 0 in
12:09 63.5 °F 39.4 °F 29.6 in SSO 10.2 mph 16 mph 41% 0 in
12:14 63.5 °F 39.9 °F 29.6 in SSO 9.1 mph 18.5 mph 41.9% 0 in
12:19 63.3 °F 39.7 °F 29.6 in SSO 8.5 mph 20.7 mph 42% 0 in
12:24 63.1 °F 39.9 °F 29.6 in Sur 9.4 mph 21 mph 42.3% 0 in
12:29 63.1 °F 39.9 °F 29.6 in SSO 10 mph 17.3 mph 42.5% 0 in
12:34 63.1 °F 39.6 °F 29.6 in Sur 9.1 mph 19 mph 42% 0 in
12:39 63.1 °F 39.7 °F 29.6 in Sur 8.7 mph 22.3 mph 42% 0 in
12:44 63.1 °F 39.7 °F 29.5 in Sur 9 mph 22.3 mph 42% 0 in
12:49 63.1 °F 39.7 °F 29.5 in Sur 9.2 mph 22 mph 42% 0 in
12:54 63.1 °F 40.3 °F 29.5 in Sur 9.7 mph 20 mph 42.9% 0 in
12:59 63.1 °F 40.3 °F 29.5 in Sur 10 mph 15 mph 43% 0 in
13:04 63.1 °F 40.3 °F 29.5 in Sur 8.7 mph 15 mph 43% 0 in
13:09 63.1 °F 40.3 °F 29.5 in SSO 8.1 mph 15 mph 43% 0 in
13:14 63.1 °F 40.6 °F 29.5 in SSO 7.8 mph 18.4 mph 43.5% 0 in
13:19 63.3 °F 40.5 °F 29.5 in SSO 7.6 mph 18.4 mph 43.1% 0 in
13:24 63.5 °F 40.6 °F 29.5 in SSO 7.6 mph 16.1 mph 43% 0 in
13:29 63.9 °F 40.6 °F 29.5 in SSO 7.6 mph 21.3 mph 42.8% 0 in
13:34 64 °F 40.6 °F 29.5 in SO 9.9 mph 21 mph 42.5% 0 in
13:39 64 °F 40.6 °F 29.5 in SO 11.2 mph 17.5 mph 42.3% 0 in
13:44 64.2 °F 40.6 °F 29.5 in SO 9.5 mph 20.8 mph 42% 0 in
13:49 64.2 °F 40.6 °F 29.5 in SO 8.5 mph 21 mph 42% 0 in
13:54 64.2 °F 40.8 °F 29.5 in OSO 9.4 mph 31.7 mph 42.3% 0 in
13:59 62.6 °F 40.5 °F 29.5 in ONO 10 mph 33.7 mph 44.2% 0 in
14:04 60.3 °F 40.3 °F 29.5 in ONO 16.1 mph 34 mph 47.5% 0 in
14:09 59.2 °F 40.5 °F 29.6 in ONO 19.2 mph 36.8 mph 50% 0 in
14:14 58.1 °F 41 °F 29.6 in ONO 18.8 mph 37 mph 52.9% 0 in
14:19 57 °F 41.2 °F 29.6 in ONO 18.5 mph 36 mph 55.4% 0 in
14:24 56.1 °F 41.9 °F 29.6 in NO 18.8 mph 36.9 mph 58.8% 0 in
14:29 55 °F 42.4 °F 29.6 in ONO 19 mph 37 mph 62.4% 0 in
14:34 54.1 °F 42.4 °F 29.6 in ONO 19.1 mph 35 mph 64.6% 0 in
14:39 53.8 °F 42.4 °F 29.6 in ONO 19.2 mph 35.1 mph 65.5% 0.01 in
14:44 52.9 °F 42.8 °F 29.6 in ONO 18.8 mph 38.4 mph 68.7% 0.04 in
14:49 52.2 °F 43.2 °F 29.6 in ONO 18.5 mph 38 mph 71.6% 0.05 in
14:54 51.8 °F 43.3 °F 29.6 in ONO 16.8 mph 31 mph 72.8% 0.06 in
14:59 51.4 °F 43.5 °F 29.6 in Oeste 15.9 mph 23 mph 74% 0.06 in
15:04 51.4 °F 43.5 °F 29.6 in OSO 13.2 mph 19 mph 74.3% 0.07 in
15:09 51.4 °F 44.1 °F 29.6 in Sur 11.8 mph 16 mph 75.8% 0.08 in
15:14 51.4 °F 44.8 °F 29.6 in SSE 9.4 mph 14 mph 77.7% 0.08 in
15:19 51.3 °F 45.1 °F 29.6 in SSE 8.1 mph 16.1 mph 79.8% 0.09 in
15:24 50.9 °F 45.3 °F 29.6 in SE 8.8 mph 17 mph 81.1% 0.09 in
15:29 50.7 °F 45.1 °F 29.6 in Sur 9.2 mph 17.3 mph 80.9% 0.1 in
15:34 50.7 °F 44.8 °F 29.6 in Sur 8.4 mph 15 mph 80% 0.1 in
15:39 50.9 °F 44.8 °F 29.6 in Sur 8.1 mph 14 mph 79.5% 0.1 in
15:44 51.3 °F 45.1 °F 29.6 in Sur 7.6 mph 12 mph 79.7% 0.09 in
15:49 51.3 °F 45.5 °F 29.6 in SSE 7.4 mph 13 mph 80.4% 0.05 in
15:54 51.3 °F 45.3 °F 29.6 in SSE 7.5 mph 13 mph 80% 0.05 in
15:59 51.3 °F 45.3 °F 29.6 in SSE 7.6 mph 13 mph 79.8% 0.04 in
16:04 51.3 °F 45.3 °F 29.6 in Sur 7.5 mph 13 mph 79.8% 0.04 in
16:09 51.3 °F 45.3 °F 29.6 in SSE 7.4 mph 13 mph 79.9% 0.03 in
16:14 51.3 °F 45.3 °F 29.6 in Sur 7.1 mph 9.7 mph 79.9% 0.02 in
16:19 51.3 °F 45 °F 29.6 in Sur 6.9 mph 10 mph 79% 0.02 in
16:24 51.3 °F 45 °F 29.6 in SSO 6.3 mph 9 mph 79% 0.01 in
16:29 51.4 °F 45.1 °F 29.6 in Sur 5.9 mph 8.7 mph 79% 0 in
16:34 51.6 °F 45 °F 29.6 in SSE 5.5 mph 11.2 mph 77.9% 0 in
16:39 52 °F 45.1 °F 29.6 in Sur 5.2 mph 12 mph 77% 0 in
16:44 52.2 °F 45 °F 29.6 in Sur 5.8 mph 9 mph 76.1% 0 in
16:49 52.3 °F 45 °F 29.6 in SSE 6.2 mph 13.8 mph 75.9% 0 in
16:54 52.5 °F 45 °F 29.6 in SSE 6.3 mph 14 mph 75.1% 0 in
16:59 52.9 °F 44.6 °F 29.6 in SSE 6.4 mph 11.5 mph 73.6% 0 in
17:04 53.1 °F 44.6 °F 29.6 in Sur 6.4 mph 12 mph 72.7% 0 in
17:09 53.2 °F 44.6 °F 29.6 in Sur 6.4 mph 9.2 mph 72% 0 in
17:14 53.8 °F 44.4 °F 29.6 in SSO 5.3 mph 8.5 mph 70.8% 0 in
17:19 54.1 °F 44.6 °F 29.6 in Oeste 4.7 mph 9 mph 70.1% 0 in
17:24 54.5 °F 44.8 °F 29.6 in ONO 3 mph 6 mph 70% 0 in
17:29 54.7 °F 44.6 °F 29.6 in SSO 2 mph 6.2 mph 68.9% 0 in
17:34 54.7 °F 44.2 °F 29.6 in Sur 3 mph 6.4 mph 67.7% 0 in
17:39 54.7 °F 44.6 °F 29.6 in SSE 3.6 mph 6.9 mph 68.7% 0 in
17:44 54.5 °F 45.1 °F 29.6 in SE 4 mph 7 mph 70.4% 0 in
17:49 54.1 °F 45 °F 29.6 in SE 4.3 mph 7 mph 71.4% 0 in
17:54 53.6 °F 45 °F 29.6 in SE 4.1 mph 6 mph 72.2% 0 in
17:59 53.4 °F 45.1 °F 29.6 in SSE 4 mph 6.2 mph 73.2% 0 in
18:04 53.2 °F 44.8 °F 29.6 in SSE 4 mph 6.9 mph 73.1% 0 in
18:09 53.2 °F 44.8 °F 29.6 in SO 4 mph 7 mph 73% 0 in
18:14 53.2 °F 44.4 °F 29.6 in SSO 3.7 mph 5.8 mph 72.1% 0 in
18:19 53.2 °F 44.6 °F 29.6 in SSO 3.6 mph 6 mph 72.3% 0 in
18:24 53.2 °F 44.8 °F 29.6 in SSO 3.3 mph 5 mph 72.9% 0 in
18:29 53.2 °F 44.8 °F 29.6 in SSO 3.1 mph 6.2 mph 72.7% 0 in
18:34 53.4 °F 44.6 °F 29.6 in SSO 3.4 mph 8.1 mph 71.9% 0 in
18:39 53.4 °F 44.2 °F 29.6 in SSO 3.6 mph 8 mph 71% 0 in
18:44 53.4 °F 43.5 °F 29.6 in SO 4 mph 9.2 mph 69% 0 in
18:49 53.8 °F 41.9 °F 29.6 in OSO 4.3 mph 10.7 mph 64.1% 0 in
18:54 54.3 °F 40.3 °F 29.6 in OSO 5.7 mph 14 mph 59.1% 0 in
18:59 55 °F 39.2 °F 29.6 in OSO 6.4 mph 15 mph 54.9% 0 in
19:04 55.4 °F 38.7 °F 29.6 in OSO 7.8 mph 15 mph 53.1% 0 in
19:09 55.4 °F 38.5 °F 29.6 in OSO 8.5 mph 14 mph 53% 0 in
19:14 55.2 °F 38.3 °F 29.6 in OSO 7.8 mph 12.7 mph 52.8% 0 in
19:19 55.2 °F 37.9 °F 29.6 in OSO 7.4 mph 13 mph 52.2% 0 in
19:24 55 °F 37.9 °F 29.6 in OSO 7.1 mph 12 mph 52.4% 0 in
19:29 54.9 °F 37.8 °F 29.6 in OSO 6.9 mph 12 mph 52.1% 0 in
19:34 54.9 °F 37.6 °F 29.6 in SO 6.3 mph 11 mph 52.1% 0 in
19:39 54.9 °F 37.9 °F 29.6 in SO 5.9 mph 10.4 mph 52.8% 0 in
19:44 54.7 °F 37.8 °F 29.6 in OSO 6.2 mph 11.4 mph 52.8% 0 in
19:49 54.7 °F 37.8 °F 29.6 in OSO 6.4 mph 12 mph 52.8% 0 in
19:54 54.5 °F 37.8 °F 29.6 in SO 6.3 mph 12 mph 52.9% 0 in
19:59 54.5 °F 37.4 °F 29.6 in SO 6.2 mph 10.4 mph 52.4% 0 in
20:04 54.5 °F 37.4 °F 29.6 in SO 5.5 mph 10 mph 52.3% 0 in
20:09 54.7 °F 37.4 °F 29.6 in SSO 5.2 mph 9 mph 52% 0 in
20:14 54.7 °F 37.9 °F 29.6 in Sur 4.8 mph 9.2 mph 53.2% 0 in
20:19 53.6 °F 38.5 °F 29.6 in Sur 4.7 mph 11.5 mph 56.5% 0 in
20:24 53.1 °F 37.9 °F 29.6 in Sur 6.6 mph 13.8 mph 56.3% 0 in
20:29 53.6 °F 37.4 °F 29.6 in Sur 7.6 mph 14 mph 54.3% 0 in
20:34 54 °F 37.8 °F 29.6 in Sur 7.9 mph 15.2 mph 54% 0 in
20:39 53.8 °F 37.9 °F 29.6 in SSO 8.1 mph 15 mph 54.9% 0 in
20:44 53.4 °F 37.6 °F 29.6 in Sur 6.7 mph 10 mph 55% 0 in
20:49 53.4 °F 37.6 °F 29.6 in Sur 5.9 mph 9 mph 55% 0 in
20:54 53.4 °F 37.6 °F 29.6 in SO 5.5 mph 8 mph 55% 0 in
20:59 53.4 °F 37.6 °F 29.6 in OSO 5.2 mph 6 mph 54.9% 0 in
21:04 53.4 °F 37.6 °F 29.6 in SSE 3.4 mph 5 mph 55% 0 in
21:09 53.4 °F 37.6 °F 29.6 in SE 2.4 mph 6.9 mph 55% 0 in
21:14 53.2 °F 37.6 °F 29.6 in SE 3.2 mph 7.4 mph 55.3% 0 in
21:19 53.1 °F 37.8 °F 29.6 in SE 3.6 mph 9.2 mph 56% 0 in
21:24 52.7 °F 37.6 °F 29.6 in SE 4.8 mph 9.2 mph 56.4% 0 in
21:29 52.3 °F 37.6 °F 29.6 in SE 5.4 mph 10.4 mph 57% 0 in
21:34 52.2 °F 37.4 °F 29.6 in SSE 5.9 mph 10 mph 57.2% 0 in
21:39 52 °F 37.4 °F 29.6 in SSE 6.2 mph 9.2 mph 57.5% 0 in
21:44 52 °F 37.6 °F 29.6 in SSE 6 mph 9 mph 58% 0 in
21:49 51.6 °F 37.4 °F 29.6 in SE 5.9 mph 9.7 mph 58% 0 in
21:54 51.6 °F 37.6 °F 29.6 in SE 5.5 mph 10 mph 58.7% 0 in
21:59 51.4 °F 37.6 °F 29.6 in ESE 5.2 mph 9 mph 59% 0 in
22:04 51.3 °F 37.4 °F 29.6 in ESE 4.8 mph 9.2 mph 59% 0 in
22:09 51.3 °F 37.4 °F 29.6 in SE 4.7 mph 9 mph 58.8% 0 in
22:14 51.4 °F 37 °F 29.6 in SE 5.2 mph 8 mph 58% 0 in
22:19 51.4 °F 37 °F 29.6 in SSE 5.4 mph 8.5 mph 58% 0 in
22:24 51.6 °F 36.9 °F 29.6 in Sur 4.7 mph 9 mph 57% 0 in
22:29 52.2 °F 36.7 °F 29.6 in Sur 4.3 mph 9 mph 55.7% 0 in
22:34 52.3 °F 36.3 °F 29.6 in Sur 4.9 mph 12.7 mph 54.3% 0 in
22:39 53.1 °F 36.3 °F 29.6 in Sur 5.2 mph 13 mph 52.8% 0 in
22:44 53.4 °F 36 °F 29.6 in Sur 6.7 mph 11.5 mph 51.4% 0 in
22:49 54 °F 35.8 °F 29.6 in Sur 7.6 mph 12 mph 50.2% 0 in
22:54 54 °F 35.8 °F 29.6 in Sur 7.6 mph 12 mph 50% 0 in
22:59 54.1 °F 35.6 °F 29.6 in Sur 7.6 mph 12 mph 49.4% 0 in
23:04 54.1 °F 35.4 °F 29.6 in Sur 7.5 mph 12 mph 49% 0 in
23:09 54.3 °F 35.6 °F 29.6 in SSE 7.4 mph 12 mph 49% 0 in
23:14 54.1 °F 36 °F 29.6 in SSE 7.4 mph 12 mph 49.9% 0 in
23:19 54.1 °F 36 °F 29.6 in SSE 7.4 mph 11.5 mph 50% 0 in
23:24 54 °F 35.8 °F 29.6 in SSE 6.8 mph 12 mph 50% 0 in
23:29 54 °F 36.1 °F 29.6 in SE 6.4 mph 10 mph 51% 0 in
23:34 53.8 °F 36.1 °F 29.6 in Sur 6.3 mph 12.3 mph 51% 0 in
23:39 54 °F 35.8 °F 29.6 in Sur 6.2 mph 13 mph 50.2% 0 in
23:44 54.1 °F 35.8 °F 29.6 in SSO 6.6 mph 13 mph 50% 0 in
23:49 54.1 °F 36 °F 29.6 in Sur 6.9 mph 11.5 mph 50% 0 in
23:54 54.1 °F 35.8 °F 29.6 in Sur 6 mph 12 mph 49.9% 0 in
23:59 54.1 °F 35.8 °F 29.6 in Sur 5.4 mph 12 mph 49.7% 0 in
Murcia-Puente Tocinos, España
Compliments of Weather Underground - 3.5 mb

La estación de MeteoMurcia.com, publica sus datos en los siguientes proyectos:

Weather Underground PWS IMURCIAP2 Meteoclimatic www.awekas.at

W3Counter
Web Analytics